sensor_id;sensor_type;location;lat;lon;timestamp;temperature;humidity
4584;DHT22;2304;47.606;12.186;2023-09-19T00:02:13;17.20;92.30
4584;DHT22;2304;47.606;12.186;2023-09-19T00:07:15;17.20;92.00
4584;DHT22;2304;47.606;12.186;2023-09-19T00:12:19;17.20;92.50
4584;DHT22;2304;47.606;12.186;2023-09-19T00:17:20;17.20;92.60
4584;DHT22;2304;47.606;12.186;2023-09-19T00:22:22;17.10;92.50
4584;DHT22;2304;47.606;12.186;2023-09-19T00:27:28;17.10;92.20
4584;DHT22;2304;47.606;12.186;2023-09-19T00:32:30;17.20;93.10
4584;DHT22;2304;47.606;12.186;2023-09-19T00:37:32;17.00;93.40
4584;DHT22;2304;47.606;12.186;2023-09-19T00:42:35;17.00;93.60
4584;DHT22;2304;47.606;12.186;2023-09-19T00:47:38;16.90;93.50
4584;DHT22;2304;47.606;12.186;2023-09-19T00:52:42;16.90;93.00
4584;DHT22;2304;47.606;12.186;2023-09-19T00:57:46;16.80;92.50
4584;DHT22;2304;47.606;12.186;2023-09-19T01:02:50;16.90;92.80
4584;DHT22;2304;47.606;12.186;2023-09-19T01:07:52;16.90;93.00
4584;DHT22;2304;47.606;12.186;2023-09-19T01:13:03;16.80;93.20
4584;DHT22;2304;47.606;12.186;2023-09-19T01:18:16;16.80;94.00
4584;DHT22;2304;47.606;12.186;2023-09-19T01:23:23;16.80;93.80
4584;DHT22;2304;47.606;12.186;2023-09-19T01:28:35;16.70;94.10
4584;DHT22;2304;47.606;12.186;2023-09-19T01:33:56;16.80;93.60
4584;DHT22;2304;47.606;12.186;2023-09-19T01:38:59;17.00;92.50
4584;DHT22;2304;47.606;12.186;2023-09-19T01:44:15;16.90;91.30
4584;DHT22;2304;47.606;12.186;2023-09-19T01:49:27;16.80;90.30
4584;DHT22;2304;47.606;12.186;2023-09-19T01:54:36;16.80;90.70
4584;DHT22;2304;47.606;12.186;2023-09-19T01:59:48;16.80;91.20
4584;DHT22;2304;47.606;12.186;2023-09-19T02:04:51;16.80;91.40
4584;DHT22;2304;47.606;12.186;2023-09-19T02:09:54;16.70;92.00
4584;DHT22;2304;47.606;12.186;2023-09-19T02:14:55;16.80;91.50
4584;DHT22;2304;47.606;12.186;2023-09-19T02:19:59;16.80;91.60
4584;DHT22;2304;47.606;12.186;2023-09-19T02:25:01;17.00;91.30
4584;DHT22;2304;47.606;12.186;2023-09-19T02:30:06;16.90;91.80
4584;DHT22;2304;47.606;12.186;2023-09-19T02:35:10;16.90;92.50
4584;DHT22;2304;47.606;12.186;2023-09-19T02:40:13;16.90;92.70
4584;DHT22;2304;47.606;12.186;2023-09-19T02:45:20;16.90;92.90
4584;DHT22;2304;47.606;12.186;2023-09-19T02:50:24;16.90;92.80
4584;DHT22;2304;47.606;12.186;2023-09-19T02:55:26;16.90;92.90
4584;DHT22;2304;47.606;12.186;2023-09-19T03:00:28;16.90;92.90
4584;DHT22;2304;47.606;12.186;2023-09-19T03:05:32;17.00;93.00
4584;DHT22;2304;47.606;12.186;2023-09-19T03:10:33;17.00;92.80
4584;DHT22;2304;47.606;12.186;2023-09-19T03:15:41;17.00;92.80
4584;DHT22;2304;47.606;12.186;2023-09-19T03:20:52;17.00;93.00
4584;DHT22;2304;47.606;12.186;2023-09-19T03:25:55;16.90;93.50
4584;DHT22;2304;47.606;12.186;2023-09-19T03:31:00;16.90;93.80
4584;DHT22;2304;47.606;12.186;2023-09-19T03:36:04;16.90;93.80
4584;DHT22;2304;47.606;12.186;2023-09-19T03:41:06;16.90;93.60
4584;DHT22;2304;47.606;12.186;2023-09-19T03:46:08;16.90;93.40
4584;DHT22;2304;47.606;12.186;2023-09-19T03:51:11;16.90;93.30
4584;DHT22;2304;47.606;12.186;2023-09-19T03:56:13;17.00;93.30
4584;DHT22;2304;47.606;12.186;2023-09-19T04:01:15;16.90;92.60
4584;DHT22;2304;47.606;12.186;2023-09-19T04:06:18;17.00;92.90
4584;DHT22;2304;47.606;12.186;2023-09-19T04:11:21;16.90;92.10
4584;DHT22;2304;47.606;12.186;2023-09-19T04:16:22;16.90;91.70
4584;DHT22;2304;47.606;12.186;2023-09-19T04:21:26;17.00;91.50
4584;DHT22;2304;47.606;12.186;2023-09-19T04:26:28;17.00;91.70
4584;DHT22;2304;47.606;12.186;2023-09-19T04:31:30;17.00;91.50
4584;DHT22;2304;47.606;12.186;2023-09-19T04:36:33;17.00;91.10
4584;DHT22;2304;47.606;12.186;2023-09-19T04:41:37;17.30;90.80
4584;DHT22;2304;47.606;12.186;2023-09-19T04:46:41;17.10;91.00
4584;DHT22;2304;47.606;12.186;2023-09-19T04:51:44;17.10;90.70
4584;DHT22;2304;47.606;12.186;2023-09-19T04:56:47;17.10;90.80
4584;DHT22;2304;47.606;12.186;2023-09-19T05:01:49;17.30;91.30
4584;DHT22;2304;47.606;12.186;2023-09-19T05:06:52;17.10;91.20
4584;DHT22;2304;47.606;12.186;2023-09-19T05:11:54;17.30;91.20
4584;DHT22;2304;47.606;12.186;2023-09-19T05:16:56;17.20;91.40
4584;DHT22;2304;47.606;12.186;2023-09-19T05:22:00;17.20;90.60
4584;DHT22;2304;47.606;12.186;2023-09-19T05:27:01;17.10;90.60
4584;DHT22;2304;47.606;12.186;2023-09-19T05:32:05;17.20;89.60
4584;DHT22;2304;47.606;12.186;2023-09-19T05:37:08;17.10;89.10
4584;DHT22;2304;47.606;12.186;2023-09-19T05:42:10;17.10;88.80
4584;DHT22;2304;47.606;12.186;2023-09-19T05:47:12;17.00;88.70
4584;DHT22;2304;47.606;12.186;2023-09-19T05:52:15;17.00;88.60
4584;DHT22;2304;47.606;12.186;2023-09-19T05:57:18;16.90;88.70
4584;DHT22;2304;47.606;12.186;2023-09-19T06:02:20;16.80;88.90
4584;DHT22;2304;47.606;12.186;2023-09-19T06:07:23;16.80;89.50
4584;DHT22;2304;47.606;12.186;2023-09-19T06:12:26;16.80;90.00
4584;DHT22;2304;47.606;12.186;2023-09-19T06:17:29;16.80;90.40
4584;DHT22;2304;47.606;12.186;2023-09-19T06:22:33;16.90;90.90
4584;DHT22;2304;47.606;12.186;2023-09-19T06:27:34;17.00;90.70
4584;DHT22;2304;47.606;12.186;2023-09-19T06:32:37;17.00;90.40
4584;DHT22;2304;47.606;12.186;2023-09-19T06:37:41;17.10;90.90
4584;DHT22;2304;47.606;12.186;2023-09-19T06:42:44;17.10;89.90
4584;DHT22;2304;47.606;12.186;2023-09-19T06:47:46;17.10;90.10
4584;DHT22;2304;47.606;12.186;2023-09-19T06:52:53;17.10;90.30
4584;DHT22;2304;47.606;12.186;2023-09-19T06:57:57;17.30;90.40
4584;DHT22;2304;47.606;12.186;2023-09-19T07:03:01;17.40;89.40
4584;DHT22;2304;47.606;12.186;2023-09-19T07:08:06;17.40;89.10
4584;DHT22;2304;47.606;12.186;2023-09-19T07:13:09;17.50;88.90
4584;DHT22;2304;47.606;12.186;2023-09-19T07:18:11;17.50;87.80
4584;DHT22;2304;47.606;12.186;2023-09-19T07:23:14;17.60;87.50
4584;DHT22;2304;47.606;12.186;2023-09-19T07:28:17;17.60;86.90
4584;DHT22;2304;47.606;12.186;2023-09-19T07:33:19;17.70;87.20
4584;DHT22;2304;47.606;12.186;2023-09-19T07:38:22;18.00;87.60
4584;DHT22;2304;47.606;12.186;2023-09-19T07:43:24;17.90;87.50
4584;DHT22;2304;47.606;12.186;2023-09-19T07:48:26;18.00;86.30
4584;DHT22;2304;47.606;12.186;2023-09-19T07:53:29;18.00;85.80
4584;DHT22;2304;47.606;12.186;2023-09-19T07:58:34;18.40;85.60
4584;DHT22;2304;47.606;12.186;2023-09-19T08:03:37;18.30;85.10
4584;DHT22;2304;47.606;12.186;2023-09-19T08:08:42;18.30;84.30
4584;DHT22;2304;47.606;12.186;2023-09-19T08:13:44;18.40;84.10
4584;DHT22;2304;47.606;12.186;2023-09-19T08:18:47;18.40;82.80
4584;DHT22;2304;47.606;12.186;2023-09-19T08:23:56;18.40;82.90
4584;DHT22;2304;47.606;12.186;2023-09-19T08:28:58;18.50;82.80
4584;DHT22;2304;47.606;12.186;2023-09-19T08:34:05;18.70;83.20
4584;DHT22;2304;47.606;12.186;2023-09-19T08:39:08;19.40;81.30
4584;DHT22;2304;47.606;12.186;2023-09-19T08:44:10;19.30;76.10
4584;DHT22;2304;47.606;12.186;2023-09-19T08:49:24;19.30;74.20
4584;DHT22;2304;47.606;12.186;2023-09-19T08:54:36;19.30;76.50
4584;DHT22;2304;47.606;12.186;2023-09-19T08:59:41;19.40;75.70
4584;DHT22;2304;47.606;12.186;2023-09-19T09:04:46;19.60;75.30
4584;DHT22;2304;47.606;12.186;2023-09-19T09:09:49;19.70;74.40
4584;DHT22;2304;47.606;12.186;2023-09-19T09:14:52;19.80;76.60
4584;DHT22;2304;47.606;12.186;2023-09-19T09:19:54;20.20;77.20
4584;DHT22;2304;47.606;12.186;2023-09-19T09:24:58;20.20;74.90
4584;DHT22;2304;47.606;12.186;2023-09-19T09:30:02;20.80;75.00
4584;DHT22;2304;47.606;12.186;2023-09-19T09:35:08;21.30;75.70
4584;DHT22;2304;47.606;12.186;2023-09-19T09:40:12;21.80;73.30
4584;DHT22;2304;47.606;12.186;2023-09-19T09:45:36;22.20;69.20
4584;DHT22;2304;47.606;12.186;2023-09-19T09:50:46;22.20;67.80
4584;DHT22;2304;47.606;12.186;2023-09-19T09:56:02;22.20;67.00
4584;DHT22;2304;47.606;12.186;2023-09-19T10:01:06;22.80;68.70
4584;DHT22;2304;47.606;12.186;2023-09-19T10:06:16;23.10;64.70
4584;DHT22;2304;47.606;12.186;2023-09-19T10:11:29;23.20;64.90
4584;DHT22;2304;47.606;12.186;2023-09-19T10:16:32;23.20;65.50
4584;DHT22;2304;47.606;12.186;2023-09-19T10:21:34;23.00;65.10
4584;DHT22;2304;47.606;12.186;2023-09-19T10:26:39;22.80;65.90
4584;DHT22;2304;47.606;12.186;2023-09-19T10:31:44;22.80;68.10
4584;DHT22;2304;47.606;12.186;2023-09-19T10:36:48;22.70;66.30
4584;DHT22;2304;47.606;12.186;2023-09-19T10:41:55;22.60;67.10
4584;DHT22;2304;47.606;12.186;2023-09-19T10:46:59;22.60;66.30
4584;DHT22;2304;47.606;12.186;2023-09-19T10:52:02;22.50;66.20
4584;DHT22;2304;47.606;12.186;2023-09-19T10:57:10;22.30;65.30
4584;DHT22;2304;47.606;12.186;2023-09-19T11:02:18;22.30;66.70
4584;DHT22;2304;47.606;12.186;2023-09-19T11:07:20;22.30;69.10
4584;DHT22;2304;47.606;12.186;2023-09-19T11:12:51;22.40;70.30
4584;DHT22;2304;47.606;12.186;2023-09-19T11:17:54;22.80;71.90
4584;DHT22;2304;47.606;12.186;2023-09-19T11:23:18;23.10;69.80
4584;DHT22;2304;47.606;12.186;2023-09-19T11:28:31;23.50;69.80
4584;DHT22;2304;47.606;12.186;2023-09-19T11:33:33;23.90;69.30
4584;DHT22;2304;47.606;12.186;2023-09-19T11:38:59;24.10;67.50
4584;DHT22;2304;47.606;12.186;2023-09-19T11:44:32;24.50;61.70
4584;DHT22;2304;47.606;12.186;2023-09-19T11:49:40;24.90;61.00
4584;DHT22;2304;47.606;12.186;2023-09-19T11:54:43;24.80;61.80
4584;DHT22;2304;47.606;12.186;2023-09-19T11:59:49;25.10;60.70
4584;DHT22;2304;47.606;12.186;2023-09-19T12:04:54;25.20;58.90
4584;DHT22;2304;47.606;12.186;2023-09-19T12:10:03;25.40;58.80
4584;DHT22;2304;47.606;12.186;2023-09-19T12:15:08;24.80;58.70
4584;DHT22;2304;47.606;12.186;2023-09-19T12:20:11;24.30;57.90
4584;DHT22;2304;47.606;12.186;2023-09-19T12:25:14;24.50;59.50
4584;DHT22;2304;47.606;12.186;2023-09-19T12:30:19;25.10;58.90
4584;DHT22;2304;47.606;12.186;2023-09-19T12:35:27;25.40;56.90
4584;DHT22;2304;47.606;12.186;2023-09-19T12:40:30;25.10;58.60
4584;DHT22;2304;47.606;12.186;2023-09-19T12:45:35;25.10;59.80
4584;DHT22;2304;47.606;12.186;2023-09-19T12:50:59;25.50;60.40
4584;DHT22;2304;47.606;12.186;2023-09-19T12:56:06;25.50;59.50
4584;DHT22;2304;47.606;12.186;2023-09-19T13:01:15;25.70;52.40
4584;DHT22;2304;47.606;12.186;2023-09-19T13:06:35;25.80;52.10
4584;DHT22;2304;47.606;12.186;2023-09-19T13:11:39;25.80;51.00
4584;DHT22;2304;47.606;12.186;2023-09-19T13:17:00;25.70;51.40
4584;DHT22;2304;47.606;12.186;2023-09-19T13:22:38;25.80;53.20
4584;DHT22;2304;47.606;12.186;2023-09-19T13:27:41;25.90;52.00
4584;DHT22;2304;47.606;12.186;2023-09-19T13:32:46;26.00;53.10
4584;DHT22;2304;47.606;12.186;2023-09-19T13:37:48;26.00;53.60
4584;DHT22;2304;47.606;12.186;2023-09-19T13:42:52;26.10;53.00
4584;DHT22;2304;47.606;12.186;2023-09-19T13:47:55;26.30;53.00
4584;DHT22;2304;47.606;12.186;2023-09-19T13:52:57;26.20;52.50
4584;DHT22;2304;47.606;12.186;2023-09-19T13:58:01;26.20;51.50
4584;DHT22;2304;47.606;12.186;2023-09-19T14:03:04;26.10;50.60
4584;DHT22;2304;47.606;12.186;2023-09-19T14:08:06;26.20;50.80
4584;DHT22;2304;47.606;12.186;2023-09-19T14:13:08;26.10;50.10
4584;DHT22;2304;47.606;12.186;2023-09-19T14:18:12;26.10;49.50
4584;DHT22;2304;47.606;12.186;2023-09-19T14:23:14;26.00;49.50
4584;DHT22;2304;47.606;12.186;2023-09-19T14:28:16;26.00;49.50
4584;DHT22;2304;47.606;12.186;2023-09-19T14:33:20;26.00;49.90
4584;DHT22;2304;47.606;12.186;2023-09-19T14:38:22;25.80;48.70
4584;DHT22;2304;47.606;12.186;2023-09-19T14:43:23;25.40;49.40
4584;DHT22;2304;47.606;12.186;2023-09-19T14:48:27;25.00;50.10
4584;DHT22;2304;47.606;12.186;2023-09-19T14:53:28;24.70;49.70
4584;DHT22;2304;47.606;12.186;2023-09-19T14:58:30;24.60;51.60
4584;DHT22;2304;47.606;12.186;2023-09-19T15:03:35;24.40;52.10
4584;DHT22;2304;47.606;12.186;2023-09-19T15:08:37;24.30;53.10
4584;DHT22;2304;47.606;12.186;2023-09-19T15:13:41;24.40;53.20
4584;DHT22;2304;47.606;12.186;2023-09-19T15:18:45;24.40;51.60
4584;DHT22;2304;47.606;12.186;2023-09-19T15:23:48;24.40;53.20
4584;DHT22;2304;47.606;12.186;2023-09-19T15:28:50;24.50;52.60
4584;DHT22;2304;47.606;12.186;2023-09-19T15:33:53;24.40;52.60
4584;DHT22;2304;47.606;12.186;2023-09-19T15:38:59;24.20;51.90
4584;DHT22;2304;47.606;12.186;2023-09-19T15:44:02;24.20;52.50
4584;DHT22;2304;47.606;12.186;2023-09-19T15:49:05;24.10;53.20
4584;DHT22;2304;47.606;12.186;2023-09-19T15:54:10;23.90;53.60
4584;DHT22;2304;47.606;12.186;2023-09-19T15:59:14;23.90;54.20
4584;DHT22;2304;47.606;12.186;2023-09-19T16:04:17;23.70;54.50
4584;DHT22;2304;47.606;12.186;2023-09-19T16:09:19;23.50;55.10
4584;DHT22;2304;47.606;12.186;2023-09-19T16:14:22;23.40;55.50
4584;DHT22;2304;47.606;12.186;2023-09-19T16:19:26;23.20;55.70
4584;DHT22;2304;47.606;12.186;2023-09-19T16:24:27;23.10;56.30
4584;DHT22;2304;47.606;12.186;2023-09-19T16:29:29;22.90;56.60
4584;DHT22;2304;47.606;12.186;2023-09-19T16:34:32;22.80;57.80
4584;DHT22;2304;47.606;12.186;2023-09-19T16:39:34;22.60;58.80
4584;DHT22;2304;47.606;12.186;2023-09-19T16:44:37;22.50;59.70
4584;DHT22;2304;47.606;12.186;2023-09-19T16:49:40;22.30;60.20
4584;DHT22;2304;47.606;12.186;2023-09-19T16:54:42;22.20;60.30
4584;DHT22;2304;47.606;12.186;2023-09-19T16:59:44;22.00;60.90
4584;DHT22;2304;47.606;12.186;2023-09-19T17:04:47;21.90;61.50
4584;DHT22;2304;47.606;12.186;2023-09-19T17:09:49;21.80;61.60
4584;DHT22;2304;47.606;12.186;2023-09-19T17:14:51;21.80;62.00
4584;DHT22;2304;47.606;12.186;2023-09-19T17:19:54;21.80;61.60
4584;DHT22;2304;47.606;12.186;2023-09-19T17:24:56;21.50;62.30
4584;DHT22;2304;47.606;12.186;2023-09-19T17:29:58;21.40;63.30
4584;DHT22;2304;47.606;12.186;2023-09-19T17:35:01;21.20;63.60
4584;DHT22;2304;47.606;12.186;2023-09-19T17:40:04;21.20;63.70
4584;DHT22;2304;47.606;12.186;2023-09-19T17:45:08;21.10;64.40
4584;DHT22;2304;47.606;12.186;2023-09-19T17:50:11;21.10;64.70
4584;DHT22;2304;47.606;12.186;2023-09-19T17:55:13;20.90;65.20
4584;DHT22;2304;47.606;12.186;2023-09-19T18:00:17;20.90;66.20
4584;DHT22;2304;47.606;12.186;2023-09-19T18:05:20;20.70;66.50
4584;DHT22;2304;47.606;12.186;2023-09-19T18:10:22;20.60;66.50
4584;DHT22;2304;47.606;12.186;2023-09-19T18:15:24;20.40;67.50
4584;DHT22;2304;47.606;12.186;2023-09-19T18:20:28;20.30;67.60
4584;DHT22;2304;47.606;12.186;2023-09-19T18:25:30;20.20;68.20
4584;DHT22;2304;47.606;12.186;2023-09-19T18:30:32;20.10;68.70
4584;DHT22;2304;47.606;12.186;2023-09-19T18:35:36;20.20;68.80
4584;DHT22;2304;47.606;12.186;2023-09-19T18:40:42;20.00;68.60
4584;DHT22;2304;47.606;12.186;2023-09-19T18:45:54;20.00;68.90
4584;DHT22;2304;47.606;12.186;2023-09-19T18:50:57;19.80;69.60
4584;DHT22;2304;47.606;12.186;2023-09-19T18:56:06;19.70;69.80
4584;DHT22;2304;47.606;12.186;2023-09-19T19:01:09;19.60;70.80
4584;DHT22;2304;47.606;12.186;2023-09-19T19:06:14;19.50;70.40
4584;DHT22;2304;47.606;12.186;2023-09-19T19:11:16;19.50;70.30
4584;DHT22;2304;47.606;12.186;2023-09-19T19:16:21;19.50;70.60
4584;DHT22;2304;47.606;12.186;2023-09-19T19:21:28;19.30;71.50
4584;DHT22;2304;47.606;12.186;2023-09-19T19:26:30;19.20;71.80
4584;DHT22;2304;47.606;12.186;2023-09-19T19:31:33;19.40;71.80
4584;DHT22;2304;47.606;12.186;2023-09-19T19:36:38;19.20;71.80
4584;DHT22;2304;47.606;12.186;2023-09-19T19:41:40;19.20;71.80
4584;DHT22;2304;47.606;12.186;2023-09-19T19:46:44;19.00;71.90
4584;DHT22;2304;47.606;12.186;2023-09-19T19:51:47;19.00;72.20
4584;DHT22;2304;47.606;12.186;2023-09-19T19:56:50;18.90;72.10
4584;DHT22;2304;47.606;12.186;2023-09-19T20:01:52;18.80;72.50
4584;DHT22;2304;47.606;12.186;2023-09-19T20:06:55;18.80;73.20
4584;DHT22;2304;47.606;12.186;2023-09-19T20:11:57;18.70;73.80
4584;DHT22;2304;47.606;12.186;2023-09-19T20:16:59;18.70;73.10
4584;DHT22;2304;47.606;12.186;2023-09-19T20:22:02;18.70;72.60
4584;DHT22;2304;47.606;12.186;2023-09-19T20:27:09;18.60;72.80
4584;DHT22;2304;47.606;12.186;2023-09-19T20:32:13;18.50;73.80
4584;DHT22;2304;47.606;12.186;2023-09-19T20:37:18;18.50;74.10
4584;DHT22;2304;47.606;12.186;2023-09-19T20:42:20;18.50;74.40
4584;DHT22;2304;47.606;12.186;2023-09-19T20:47:23;18.50;74.80
4584;DHT22;2304;47.606;12.186;2023-09-19T20:52:27;18.40;74.40
4584;DHT22;2304;47.606;12.186;2023-09-19T20:57:29;18.40;74.80
4584;DHT22;2304;47.606;12.186;2023-09-19T21:02:30;18.30;74.30
4584;DHT22;2304;47.606;12.186;2023-09-19T21:07:34;18.30;73.30
4584;DHT22;2304;47.606;12.186;2023-09-19T21:12:35;18.20;73.30
4584;DHT22;2304;47.606;12.186;2023-09-19T21:17:37;18.20;74.20
4584;DHT22;2304;47.606;12.186;2023-09-19T21:22:44;18.10;75.10
4584;DHT22;2304;47.606;12.186;2023-09-19T21:27:46;18.10;75.10
4584;DHT22;2304;47.606;12.186;2023-09-19T21:32:48;18.10;75.50
4584;DHT22;2304;47.606;12.186;2023-09-19T21:37:51;18.10;75.50
4584;DHT22;2304;47.606;12.186;2023-09-19T21:42:53;18.00;76.00
4584;DHT22;2304;47.606;12.186;2023-09-19T21:47:54;18.10;76.00
4584;DHT22;2304;47.606;12.186;2023-09-19T21:52:59;18.10;75.60
4584;DHT22;2304;47.606;12.186;2023-09-19T21:58:01;18.10;75.80
4584;DHT22;2304;47.606;12.186;2023-09-19T22:03:03;18.00;75.90
4584;DHT22;2304;47.606;12.186;2023-09-19T22:08:09;17.90;75.40
4584;DHT22;2304;47.606;12.186;2023-09-19T22:13:11;17.90;75.10
4584;DHT22;2304;47.606;12.186;2023-09-19T22:18:16;17.90;75.10
4584;DHT22;2304;47.606;12.186;2023-09-19T22:23:22;17.80;75.10
4584;DHT22;2304;47.606;12.186;2023-09-19T22:28:30;17.80;75.20
4584;DHT22;2304;47.606;12.186;2023-09-19T22:33:35;17.70;75.20
4584;DHT22;2304;47.606;12.186;2023-09-19T22:38:41;17.70;75.40
4584;DHT22;2304;47.606;12.186;2023-09-19T22:43:43;17.70;76.10
4584;DHT22;2304;47.606;12.186;2023-09-19T22:48:48;17.60;76.30
4584;DHT22;2304;47.606;12.186;2023-09-19T22:53:52;17.60;76.00
4584;DHT22;2304;47.606;12.186;2023-09-19T22:58:58;17.60;75.80
4584;DHT22;2304;47.606;12.186;2023-09-19T23:04:00;17.90;75.50
4584;DHT22;2304;47.606;12.186;2023-09-19T23:09:21;17.60;75.40
4584;DHT22;2304;47.606;12.186;2023-09-19T23:14:24;17.50;75.90
4584;DHT22;2304;47.606;12.186;2023-09-19T23:19:33;17.50;75.80
4584;DHT22;2304;47.606;12.186;2023-09-19T23:24:37;17.40;76.60
4584;DHT22;2304;47.606;12.186;2023-09-19T23:29:41;17.30;76.70
4584;DHT22;2304;47.606;12.186;2023-09-19T23:34:43;17.30;76.40
4584;DHT22;2304;47.606;12.186;2023-09-19T23:39:48;17.20;76.10
4584;DHT22;2304;47.606;12.186;2023-09-19T23:44:51;17.20;76.10
4584;DHT22;2304;47.606;12.186;2023-09-19T23:49:55;17.20;75.70
4584;DHT22;2304;47.606;12.186;2023-09-19T23:54:59;17.20;75.20
